createdAt,value
2023-02-19T00:01:08.202Z,99942.94
2023-02-19T00:03:36.967Z,99937.25
2023-02-19T00:06:04.461Z,99932.13
2023-02-19T00:08:31.702Z,99936.50
2023-02-19T00:11:01.551Z,99933.75
2023-02-19T00:13:28.114Z,99933.88
2023-02-19T00:15:54.684Z,99932.56
2023-02-19T00:18:21.297Z,99933.13
2023-02-19T00:20:49.202Z,99930.84
2023-02-19T00:23:15.814Z,99928.31
2023-02-19T00:25:42.383Z,99933.63
2023-02-19T00:28:08.987Z,99927.63
2023-02-19T00:30:35.542Z,99908.31
2023-02-19T00:33:02.107Z,99922.97
2023-02-19T00:35:28.645Z,99913.47
2023-02-19T00:37:56.662Z,99913.78
2023-02-19T00:40:23.212Z,99907.97
2023-02-19T00:42:49.732Z,99905.81
2023-02-19T00:45:16.404Z,99906.06
2023-02-19T00:47:42.969Z,99906.59
2023-02-19T00:50:09.766Z,99909.44
2023-02-19T00:52:36.598Z,99903.75
2023-02-19T00:55:05.285Z,99912.47
2023-02-19T00:57:31.844Z,99915.53
2023-02-19T00:59:58.391Z,99909.00
2023-02-19T01:02:25.096Z,99906.13
2023-02-19T01:04:51.700Z,99907.84
2023-02-19T01:07:18.551Z,99895.13
2023-02-19T01:09:45.171Z,99897.63
2023-02-19T01:12:13.273Z,99901.34
2023-02-19T01:14:39.881Z,99895.22
2023-02-19T01:17:06.437Z,99900.75
2023-02-19T01:19:33.338Z,99903.06
2023-02-19T01:22:00.154Z,99903.19
2023-02-19T01:24:27.909Z,99895.56
2023-02-19T01:26:57.374Z,99896.75
2023-02-19T01:29:25.280Z,99902.66
2023-02-19T01:31:52.045Z,99900.34
2023-02-19T01:34:18.680Z,99900.47
2023-02-19T01:36:45.248Z,99890.56
2023-02-19T01:39:11.820Z,99899.78
2023-02-19T01:41:40.178Z,99892.81
2023-02-19T01:44:27.920Z,99907.66
2023-02-19T01:46:56.161Z,99897.53
2023-02-19T01:49:27.849Z,99898.50
2023-02-19T01:51:59.508Z,99894.16
2023-02-19T01:54:30.276Z,99894.47
2023-02-19T01:56:57.925Z,99898.41
2023-02-19T01:59:24.865Z,99892.19
2023-02-19T02:01:51.843Z,99891.53
2023-02-19T02:04:19.803Z,99902.13
2023-02-19T02:06:50.266Z,99892.38
2023-02-19T02:09:18.341Z,99903.09
2023-02-19T02:11:47.759Z,99894.38
2023-02-19T02:14:15.786Z,99900.78
2023-02-19T02:16:54.426Z,99897.72
2023-02-19T02:19:33.737Z,99891.19
2023-02-19T02:22:07.243Z,99904.59
2023-02-19T02:24:58.810Z,99904.81
2023-02-19T02:27:41.466Z,99904.81
2023-02-19T02:30:22.703Z,99910.16
2023-02-19T02:32:56.524Z,99901.22
2023-02-19T02:35:27.389Z,99903.16
2023-02-19T02:37:56.871Z,99911.13
2023-02-19T02:40:23.754Z,99900.78
2023-02-19T02:42:50.572Z,99908.84
2023-02-19T02:45:30.758Z,99900.22
2023-02-19T02:47:58.298Z,99905.03
2023-02-19T02:50:29.170Z,99898.44
2023-02-19T02:53:00.039Z,99898.88
2023-02-19T02:55:31.153Z,99908.19
2023-02-19T02:57:57.801Z,99900.50
2023-02-19T03:00:27.494Z,99908.97
2023-02-19T03:02:56.476Z,99907.66
2023-02-19T03:05:26.598Z,99909.53
2023-02-19T03:08:00.348Z,99921.31
2023-02-19T03:10:34.437Z,99913.31
2023-02-19T03:13:03.071Z,99916.22
2023-02-19T03:15:37.040Z,99921.19
2023-02-19T03:18:08.557Z,99915.41
2023-02-19T03:20:40.241Z,99921.69
2023-02-19T03:23:11.215Z,99920.53
2023-02-19T03:25:39.258Z,99929.28
2023-02-19T03:28:10.790Z,99926.94
2023-02-19T03:30:42.700Z,99938.09
2023-02-19T03:33:13.458Z,99943.44
2023-02-19T03:35:43.207Z,99933.53
2023-02-19T03:38:16.047Z,99937.03
2023-02-19T03:40:54.539Z,99940.38
2023-02-19T03:43:27.337Z,99935.13
2023-02-19T03:46:03.040Z,99939.06
2023-02-19T03:48:34.522Z,99941.00
2023-02-19T03:51:25.138Z,99942.19
2023-02-19T03:54:00.861Z,99944.84
2023-02-19T03:56:34.037Z,99946.25
2023-02-19T03:59:08.348Z,99952.25
2023-02-19T04:01:43.550Z,99950.31
2023-02-19T04:04:16.115Z,99953.69
2023-02-19T04:06:47.096Z,99965.09
2023-02-19T04:09:14.920Z,99953.34
2023-02-19T04:11:44.222Z,99954.13
2023-02-19T04:14:15.162Z,99954.91
2023-02-19T04:16:47.719Z,99965.28
2023-02-19T04:19:20.137Z,99977.81
2023-02-19T04:21:47.694Z,99977.13
2023-02-19T04:24:18.516Z,99978.66
2023-02-19T04:26:45.380Z,99985.50
2023-02-19T04:29:12.075Z,99991.53
2023-02-19T04:31:38.800Z,99987.44
2023-02-19T04:34:06.771Z,99992.94
2023-02-19T04:36:33.683Z,99997.19
2023-02-19T04:39:00.630Z,99991.03
2023-02-19T04:41:27.203Z,99998.13
2023-02-19T04:43:53.865Z,100006.66
2023-02-19T04:46:20.647Z,100003.78
2023-02-19T04:48:47.216Z,100019.25
2023-02-19T04:51:15.195Z,100004.56
2023-02-19T04:53:41.842Z,100018.22
2023-02-19T04:56:09.692Z,100010.78
2023-02-19T04:58:36.346Z,100004.81
2023-02-19T05:01:03.018Z,100012.69
2023-02-19T05:03:29.808Z,100020.88
2023-02-19T05:05:56.623Z,100004.19
2023-02-19T05:08:24.548Z,100031.03
2023-02-19T05:10:51.086Z,100030.16
2023-02-19T05:13:17.744Z,100036.69
2023-02-19T05:15:54.695Z,100053.25
2023-02-19T05:18:21.267Z,100045.09
2023-02-19T05:20:50.054Z,100052.38
2023-02-19T05:23:16.786Z,100048.31
2023-02-19T05:25:44.772Z,100059.50
2023-02-19T05:28:11.717Z,100053.63
2023-02-19T05:30:38.337Z,100057.16
2023-02-19T05:33:04.847Z,100064.47
2023-02-19T05:35:31.489Z,100069.69
2023-02-19T05:37:58.050Z,100076.13
2023-02-19T05:40:24.754Z,100073.53
2023-02-19T05:42:52.802Z,100075.16
2023-02-19T05:45:19.369Z,100083.13
2023-02-19T05:47:45.923Z,100075.41
2023-02-19T05:50:12.463Z,100072.97
2023-02-19T05:52:39.014Z,100081.72
2023-02-19T05:55:06.600Z,100082.84
2023-02-19T05:57:33.201Z,100093.13
2023-02-19T06:00:01.082Z,100084.66
2023-02-19T06:02:27.654Z,100085.91
2023-02-19T06:04:54.291Z,100090.06
2023-02-19T06:07:20.916Z,100097.88
2023-02-19T06:09:50.238Z,100091.00
2023-02-19T06:12:16.900Z,100086.94
2023-02-19T06:14:43.534Z,100099.53
2023-02-19T06:17:11.483Z,100094.34
2023-02-19T06:19:38.054Z,100101.41
2023-02-19T06:22:04.479Z,100105.56
2023-02-19T06:24:31.230Z,100104.31
2023-02-19T06:26:57.783Z,100114.63
2023-02-19T06:29:24.396Z,100115.50
2023-02-19T06:31:51.272Z,100118.09
2023-02-19T06:34:19.252Z,100123.28
2023-02-19T06:36:45.756Z,100127.75
2023-02-19T06:39:12.320Z,100121.19
2023-02-19T06:41:38.871Z,100121.41
2023-02-19T06:44:05.306Z,100141.44
2023-02-19T06:46:32.069Z,100143.81
2023-02-19T06:48:58.563Z,100138.56
2023-02-19T06:51:26.484Z,100144.50
2023-02-19T06:53:53.291Z,100152.94
2023-02-19T06:56:25.946Z,100146.66
2023-02-19T06:58:52.707Z,100154.91
2023-02-19T07:01:19.301Z,100160.25
2023-02-19T07:03:45.906Z,100167.88
2023-02-19T07:06:12.437Z,100154.34
2023-02-19T07:08:40.271Z,100174.09
2023-02-19T07:11:06.775Z,100184.97
2023-02-19T07:13:33.588Z,100174.16
2023-02-19T07:16:01.135Z,100181.00
2023-02-19T07:18:28.232Z,100184.19
2023-02-19T07:20:54.783Z,100189.69
2023-02-19T07:23:21.746Z,100197.63
2023-02-19T07:25:49.555Z,100191.91
2023-02-19T07:28:16.058Z,100200.06
2023-02-19T07:30:42.761Z,100203.91
2023-02-19T07:33:10.700Z,100216.53
2023-02-19T07:35:37.226Z,100224.13
2023-02-19T07:38:04.105Z,100228.63
2023-02-19T07:40:30.538Z,100228.16
2023-02-19T07:42:59.421Z,100233.31
2023-02-19T07:45:26.022Z,100241.97
2023-02-19T07:47:52.478Z,100239.06
2023-02-19T07:50:19.109Z,100244.59
2023-02-19T07:52:45.679Z,100256.88
2023-02-19T07:55:12.149Z,100251.72
2023-02-19T07:57:38.724Z,100240.69
2023-02-19T08:00:08.546Z,100254.94
2023-02-19T08:02:35.003Z,100254.34
2023-02-19T08:05:01.575Z,100255.41
2023-02-19T08:07:31.417Z,100258.63
2023-02-19T08:09:58.089Z,100263.59
2023-02-19T08:12:24.629Z,100272.16
2023-02-19T08:14:51.115Z,100278.94
2023-02-19T08:17:18.984Z,100279.75
2023-02-19T08:19:45.566Z,100288.63
2023-02-19T08:22:12.002Z,100282.78
2023-02-19T08:24:38.458Z,100287.94
2023-02-19T08:27:04.902Z,100299.44
2023-02-19T08:29:31.418Z,100301.31
2023-02-19T08:31:57.909Z,100298.38
2023-02-19T08:34:25.963Z,100304.91
2023-02-19T08:36:52.468Z,100303.25
2023-02-19T08:39:20.988Z,100294.16
2023-02-19T08:41:47.731Z,100297.59
2023-02-19T08:44:14.317Z,100297.25
2023-02-19T08:46:40.802Z,100298.00
2023-02-19T08:49:07.365Z,100297.38
2023-02-19T08:51:37.283Z,100296.34
2023-02-19T08:54:04.328Z,100299.59
2023-02-19T08:56:30.881Z,100305.53
2023-02-19T08:58:57.410Z,100306.03
2023-02-19T09:01:24.105Z,100317.75
2023-02-19T09:03:52.902Z,100315.75
2023-02-19T09:06:20.660Z,100306.91
2023-02-19T09:08:48.532Z,100308.47
2023-02-19T09:11:15.461Z,100304.31
2023-02-19T09:13:42.582Z,100311.00
2023-02-19T09:16:09.580Z,100317.09
2023-02-19T09:18:36.130Z,100325.91
2023-02-19T09:21:03.803Z,100337.59
2023-02-19T09:23:30.538Z,100332.81
2023-02-19T09:25:59.034Z,100349.28
2023-02-19T09:28:25.587Z,100349.22
2023-02-19T09:30:52.135Z,100346.31
2023-02-19T09:33:18.710Z,100340.00
2023-02-19T09:35:45.267Z,100348.25
2023-02-19T09:38:11.818Z,100360.44
2023-02-19T09:40:39.331Z,100355.38
2023-02-19T09:43:11.923Z,100358.50
2023-02-19T09:45:39.955Z,100354.78
2023-02-19T09:48:06.791Z,100355.59
2023-02-19T09:50:38.829Z,100349.50
2023-02-19T09:53:14.412Z,100353.66
2023-02-19T09:55:43.013Z,100364.06
2023-02-19T09:58:22.021Z,100359.47
2023-02-19T10:00:49.508Z,100381.09
2023-02-19T10:03:22.852Z,100385.03
2023-02-19T10:05:49.525Z,100390.09
2023-02-19T10:08:20.291Z,100388.25
2023-02-19T10:10:47.054Z,100388.56
2023-02-19T10:13:19.479Z,100399.56
2023-02-19T10:15:48.922Z,100416.41
2023-02-19T10:18:23.503Z,100433.75
2023-02-19T10:20:52.419Z,100444.38
2023-02-19T10:23:19.527Z,100438.25
2023-02-19T10:25:48.920Z,100440.41
2023-02-19T10:28:18.863Z,100451.50
2023-02-19T10:30:50.873Z,100439.22
2023-02-19T10:33:17.552Z,100456.03
2023-02-19T10:35:56.078Z,100463.63
2023-02-19T10:38:25.710Z,100466.94
2023-02-19T10:41:00.272Z,100462.69
2023-02-19T10:43:30.875Z,100465.50
2023-02-19T10:45:58.402Z,100470.06
2023-02-19T10:48:30.146Z,100469.25
2023-02-19T10:51:01.296Z,100465.94
2023-02-19T10:53:40.541Z,100466.34
2023-02-19T10:56:09.708Z,100478.94
2023-02-19T10:58:37.548Z,100475.16
2023-02-19T11:01:13.485Z,100475.53
2023-02-19T11:03:40.175Z,100462.16
2023-02-19T11:06:08.929Z,100478.28
2023-02-19T11:08:47.159Z,100482.38
2023-02-19T11:11:25.926Z,100477.91
2023-02-19T11:13:56.231Z,100492.72
2023-02-19T11:16:23.389Z,100496.00
2023-02-19T11:18:57.039Z,100495.09
2023-02-19T11:21:27.345Z,100494.94
2023-02-19T11:23:55.694Z,100501.09
2023-02-19T11:26:25.575Z,100497.72
2023-02-19T11:28:57.683Z,100495.81
2023-02-19T11:31:26.592Z,100495.66
2023-02-19T11:33:57.909Z,100494.09
2023-02-19T11:36:30.854Z,100481.25
2023-02-19T11:38:59.894Z,100467.72
2023-02-19T11:42:03.108Z,100481.97
2023-02-19T11:44:44.349Z,100468.91
2023-02-19T11:47:39.580Z,100474.53
2023-02-19T11:50:20.340Z,100478.69
2023-02-19T11:52:57.877Z,100479.66
2023-02-19T11:55:37.006Z,100483.16
2023-02-19T11:58:23.583Z,100477.28
2023-02-19T12:01:01.007Z,100481.06
2023-02-19T12:03:55.097Z,100483.13
2023-02-19T12:06:31.124Z,100469.25
2023-02-19T12:09:15.894Z,100464.84
2023-02-19T12:11:54.957Z,100468.72
2023-02-19T12:14:53.097Z,100469.25
2023-02-19T12:17:36.200Z,100480.84
2023-02-19T12:20:14.442Z,100473.31
2023-02-19T12:22:46.181Z,100486.63
2023-02-19T12:25:50.194Z,100494.38
2023-02-19T12:28:46.505Z,100484.72
2023-02-19T12:31:40.709Z,100501.72
2023-02-19T12:34:30.914Z,100503.66
2023-02-19T12:37:10.230Z,100503.94
2023-02-19T12:39:45.101Z,100503.09
2023-02-19T12:42:31.405Z,100496.50
2023-02-19T12:45:02.497Z,100495.78
2023-02-19T12:47:37.047Z,100495.53
2023-02-19T12:50:21.132Z,100490.69
2023-02-19T12:52:52.420Z,100501.25
2023-02-19T12:55:22.653Z,100493.81
2023-02-19T12:57:50.916Z,100500.31
2023-02-19T13:00:29.803Z,100505.22
2023-02-19T13:03:00.601Z,100498.47
2023-02-19T13:05:40.936Z,100505.00
2023-02-19T13:08:15.320Z,100515.19
2023-02-19T13:10:51.747Z,100494.75
2023-02-19T13:13:24.014Z,100504.50
2023-02-19T13:15:54.923Z,100498.63
2023-02-19T13:18:26.439Z,100510.81
2023-02-19T13:20:55.153Z,100508.41
2023-02-19T13:23:27.014Z,100500.00
2023-02-19T13:26:09.396Z,100502.22
2023-02-19T13:28:53.872Z,100490.00
2023-02-19T13:31:39.466Z,100488.44
2023-02-19T13:34:19.438Z,100492.31
2023-02-19T13:36:48.897Z,100504.31
2023-02-19T13:39:19.318Z,100511.38
2023-02-19T13:41:50.520Z,100516.50
2023-02-19T13:44:19.072Z,100521.03
2023-02-19T13:46:47.446Z,100525.16
2023-02-19T13:49:48.436Z,100515.06
2023-02-19T13:52:41.676Z,100523.03
2023-02-19T13:55:49.381Z,100522.72
2023-02-19T13:58:57.391Z,100533.88
2023-02-19T14:02:12.736Z,100530.47
2023-02-19T14:04:47.732Z,100535.88
2023-02-19T14:07:33.296Z,100536.31
2023-02-19T14:10:01.600Z,100550.78
2023-02-19T14:12:33.216Z,100548.28
2023-02-19T14:15:33.417Z,100544.88
2023-02-19T14:17:59.995Z,100552.28
2023-02-19T14:20:42.479Z,100556.59
2023-02-19T14:23:16.415Z,100566.28
2023-02-19T14:25:50.392Z,100561.88
2023-02-19T14:28:35.069Z,100556.94
2023-02-19T14:31:17.233Z,100568.41
2023-02-19T14:33:49.865Z,100560.16
2023-02-19T14:36:24.016Z,100560.19
2023-02-19T14:38:53.632Z,100567.97
2023-02-19T14:41:22.295Z,100578.97
2023-02-19T14:43:50.483Z,100574.06
2023-02-19T14:46:24.863Z,100570.50
2023-02-19T14:48:51.919Z,100571.91
2023-02-19T14:51:34.520Z,100582.53
2023-02-19T14:54:10.639Z,100576.88
2023-02-19T14:56:45.043Z,100574.34
2023-02-19T14:59:26.370Z,100573.00
2023-02-19T15:02:00.636Z,100590.88
2023-02-19T15:04:29.607Z,100572.88
2023-02-19T15:06:57.390Z,100570.94
2023-02-19T15:09:30.512Z,100566.56
2023-02-19T15:12:00.881Z,100573.16
2023-02-19T15:14:27.490Z,100567.09
2023-02-19T15:16:59.024Z,100559.13
2023-02-19T15:19:25.891Z,100562.41
2023-02-19T15:21:52.590Z,100551.56
2023-02-19T15:24:19.496Z,100550.41
2023-02-19T15:26:49.241Z,100539.69
2023-02-19T15:29:22.123Z,100534.22
2023-02-19T15:31:50.531Z,100530.50
2023-02-19T15:34:19.800Z,100526.63
2023-02-19T15:36:47.635Z,100538.16
2023-02-19T15:39:21.017Z,100530.25
2023-02-19T15:41:57.565Z,100527.38
2023-02-19T15:44:47.701Z,100523.31
2023-02-19T15:47:23.233Z,100514.81
2023-02-19T15:49:54.924Z,100516.28
2023-02-19T15:52:31.091Z,100516.06
2023-02-19T15:55:04.215Z,100523.25
2023-02-19T15:57:37.145Z,100524.81
2023-02-19T16:00:14.201Z,100528.56
2023-02-19T16:02:41.008Z,100522.41
2023-02-19T16:05:15.949Z,100535.97
2023-02-19T16:07:42.641Z,100531.66
2023-02-19T16:10:21.690Z,100549.88
2023-02-19T16:12:56.068Z,100541.97
2023-02-19T16:15:24.348Z,100555.34
2023-02-19T16:17:50.954Z,100555.03
2023-02-19T16:20:22.580Z,100557.63
2023-02-19T16:22:50.490Z,100558.06
2023-02-19T16:25:37.323Z,100563.81
2023-02-19T16:28:11.133Z,100575.34
2023-02-19T16:30:39.259Z,100568.59
2023-02-19T16:33:33.109Z,100568.66
2023-02-19T16:36:32.903Z,100562.75
2023-02-19T16:39:18.453Z,100576.47
2023-02-19T16:42:17.394Z,100583.88
2023-02-19T16:44:44.755Z,100583.09
2023-02-19T16:47:31.722Z,100597.06
2023-02-19T16:50:01.377Z,100606.72
2023-02-19T16:52:28.826Z,100608.41
2023-02-19T16:54:55.325Z,100623.28
2023-02-19T16:57:22.047Z,100624.63
2023-02-19T16:59:48.913Z,100621.53
2023-02-19T17:02:21.941Z,100635.16
2023-02-19T17:04:49.184Z,100644.84
2023-02-19T17:07:17.681Z,100648.28
2023-02-19T17:09:44.265Z,100641.56
2023-02-19T17:12:12.763Z,100663.41
2023-02-19T17:14:39.329Z,100683.50
2023-02-19T17:17:05.816Z,100673.25
2023-02-19T17:19:37.166Z,100691.28
2023-02-19T17:22:03.624Z,100685.84
2023-02-19T17:24:30.318Z,100680.88
2023-02-19T17:26:56.881Z,100696.00
2023-02-19T17:29:23.684Z,100691.84
2023-02-19T17:31:50.928Z,100675.59
2023-02-19T17:34:18.093Z,100689.50
2023-02-19T17:36:48.246Z,100677.03
2023-02-19T17:39:15.428Z,100673.88
2023-02-19T17:41:42.247Z,100666.59
2023-02-19T17:44:09.291Z,100692.50
2023-02-19T17:46:35.943Z,100698.47
2023-02-19T17:49:02.786Z,100685.13
2023-02-19T17:51:31.808Z,100700.00
2023-02-19T17:54:02.978Z,100682.47
2023-02-19T17:56:29.716Z,100689.69
2023-02-19T17:59:01.748Z,100687.81
2023-02-19T18:07:54.958Z,100718.78
2023-02-19T18:10:25.029Z,100705.44
2023-02-19T18:13:14.079Z,100707.69
2023-02-19T18:15:56.419Z,100697.50
2023-02-19T18:18:23.116Z,100706.66
2023-02-19T18:24:25.182Z,100685.72
2023-02-19T18:27:05.251Z,100697.72
2023-02-19T18:29:33.284Z,100715.66
2023-02-19T18:32:01.344Z,100711.00
2023-02-19T18:34:28.101Z,100709.75
2023-02-19T18:36:54.971Z,100714.22
2023-02-19T18:39:24.305Z,100728.34
2023-02-19T18:41:54.351Z,100724.72
2023-02-19T18:44:23.911Z,100723.03
2023-02-19T18:46:57.623Z,100733.41
2023-02-19T18:49:24.153Z,100738.06
2023-02-19T18:51:50.778Z,100740.50
2023-02-19T18:54:17.429Z,100736.09
2023-02-19T18:56:45.161Z,100730.94
2023-02-19T18:59:27.320Z,100739.56
2023-02-19T19:02:03.294Z,100733.91
2023-02-19T19:07:30.786Z,100761.31
2023-02-19T19:09:57.468Z,100744.19
2023-02-19T19:12:23.993Z,100756.59
2023-02-19T19:14:52.662Z,100735.34
2023-02-19T19:23:40.128Z,100764.97
2023-02-19T19:26:06.973Z,100767.72
2023-02-19T19:28:33.521Z,100773.66
2023-02-19T19:31:22.424Z,100784.69
2023-02-19T19:33:59.196Z,100772.25
2023-02-19T19:36:25.685Z,100783.03
2023-02-19T19:39:28.763Z,100769.91
2023-02-19T19:42:17.371Z,100753.72
2023-02-19T19:44:44.337Z,100760.66
2023-02-19T19:47:12.359Z,100766.72
2023-02-19T19:49:40.535Z,100767.94
2023-02-19T19:52:07.591Z,100772.91
2023-02-19T19:54:34.288Z,100765.88
2023-02-19T19:57:00.918Z,100763.44
2023-02-19T19:59:27.748Z,100762.91
2023-02-19T20:01:57.530Z,100778.78
2023-02-19T20:04:36.023Z,100781.16
2023-02-19T20:07:02.655Z,100789.25
2023-02-19T20:09:29.524Z,100785.84
2023-02-19T20:11:56.612Z,100780.72
2023-02-19T20:14:28.008Z,100777.84
2023-02-19T20:16:57.752Z,100782.31
2023-02-19T20:19:25.792Z,100788.13
2023-02-19T20:21:54.001Z,100787.63
2023-02-19T20:24:23.078Z,100781.09
2023-02-19T20:26:49.914Z,100781.53
2023-02-19T20:29:16.515Z,100788.47
2023-02-19T20:31:49.248Z,100791.19
2023-02-19T20:34:15.925Z,100791.53
2023-02-19T20:36:44.520Z,100798.00
2023-02-19T20:39:11.554Z,100792.31
2023-02-19T20:41:38.246Z,100789.44
2023-02-19T20:44:05.132Z,100783.28
2023-02-19T20:46:32.028Z,100801.94
2023-02-19T20:48:58.642Z,100813.22
2023-02-19T20:51:26.981Z,100819.34
2023-02-19T20:53:54.872Z,100822.06
2023-02-19T20:56:21.374Z,100816.00
2023-02-19T20:58:48.057Z,100817.97
2023-02-19T21:01:16.672Z,100825.38
2023-02-19T21:03:43.237Z,100825.31
2023-02-19T21:06:10.248Z,100826.63
2023-02-19T21:08:36.969Z,100820.88
2023-02-19T21:11:07.375Z,100820.50
2023-02-19T21:13:33.948Z,100813.06
2023-02-19T21:16:00.626Z,100814.09
2023-02-19T21:18:27.403Z,100814.91
2023-02-19T21:20:54.110Z,100814.25
2023-02-19T21:23:20.841Z,100827.06
2023-02-19T21:25:47.374Z,100812.75
2023-02-19T21:28:15.318Z,100812.25
2023-02-19T21:30:41.879Z,100811.41
2023-02-19T21:33:08.449Z,100813.78
2023-02-19T21:35:34.991Z,100831.06
2023-02-19T21:38:01.615Z,100827.81
2023-02-19T21:40:28.117Z,100838.16
2023-02-19T21:42:58.160Z,100836.38
2023-02-19T21:45:28.406Z,100836.44
2023-02-19T21:47:54.973Z,100842.84
2023-02-19T21:50:21.828Z,100834.78
2023-02-19T21:52:49.066Z,100833.22
2023-02-19T21:55:15.767Z,100828.03
2023-02-19T21:57:42.323Z,100824.38
2023-02-19T22:00:09.861Z,100816.91
2023-02-19T22:02:39.119Z,100816.72
2023-02-19T22:05:06.676Z,100817.59
2023-02-19T22:07:33.241Z,100819.63
2023-02-19T22:09:59.789Z,100823.66
2023-02-19T22:12:26.362Z,100830.38
2023-02-19T22:14:52.870Z,100830.09
2023-02-19T22:17:19.388Z,100831.00
2023-02-19T22:19:47.869Z,100838.69
2023-02-19T22:22:14.820Z,100837.91
2023-02-19T22:24:41.363Z,100835.44
2023-02-19T22:27:07.939Z,100839.97
2023-02-19T22:29:34.651Z,100842.91
2023-02-19T22:32:01.353Z,100836.44
2023-02-19T22:34:28.206Z,100827.09
2023-02-19T22:36:56.444Z,100830.78
2023-02-19T22:39:25.645Z,100837.72
2023-02-19T22:41:53.087Z,100841.41
2023-02-19T22:44:19.990Z,100832.59
2023-02-19T22:46:48.455Z,100838.69
2023-02-19T22:49:15.172Z,100846.16
2023-02-19T22:51:47.700Z,100835.50
2023-02-19T22:54:16.246Z,100835.34
2023-02-19T22:56:43.027Z,100838.03
2023-02-19T22:59:10.060Z,100830.00
2023-02-19T23:01:36.662Z,100835.41
2023-02-19T23:04:03.460Z,100835.78
2023-02-19T23:06:32.094Z,100837.00
2023-02-19T23:09:01.505Z,100835.56
2023-02-19T23:11:32.052Z,100828.38
2023-02-19T23:13:59.000Z,100828.66
2023-02-19T23:16:25.876Z,100826.69
2023-02-19T23:18:52.642Z,100835.34
2023-02-19T23:21:20.065Z,100808.69
2023-02-19T23:23:47.433Z,100828.84
2023-02-19T23:26:15.501Z,100822.38
2023-02-19T23:28:44.311Z,100827.25
2023-02-19T23:31:11.771Z,100837.06
2023-02-19T23:33:38.570Z,100820.69
2023-02-19T23:36:05.831Z,100821.94
2023-02-19T23:38:32.365Z,100820.19
2023-02-19T23:40:59.429Z,100814.13
2023-02-19T23:43:25.994Z,100807.72
2023-02-19T23:45:53.999Z,100802.66
2023-02-19T23:48:20.846Z,100802.03
2023-02-19T23:50:47.445Z,100812.78
2023-02-19T23:53:14.065Z,100817.81
2023-02-19T23:55:40.522Z,100805.44
2023-02-19T23:58:06.994Z,100803.75
